createdAt,value
2019-04-19T00:00:17.479Z,51.78
2019-04-19T00:01:44.708Z,51.68
2019-04-19T00:03:30.464Z,51.88
2019-04-19T00:05:00.423Z,51.12
2019-04-19T00:06:30.721Z,51.68
2019-04-19T00:08:19.266Z,50.92
2019-04-19T00:10:56.815Z,51.21
2019-04-19T00:12:58.383Z,51.68
2019-04-19T00:14:17.431Z,51.56
2019-04-19T00:15:28.982Z,51.66
2019-04-19T00:16:43.072Z,52.73
2019-04-19T00:18:09.524Z,52.23
2019-04-19T00:20:21.779Z,52.71
2019-04-19T00:23:15.285Z,51.95
2019-04-19T00:24:52.431Z,52.23
2019-04-19T00:26:04.357Z,51.95
2019-04-19T00:27:16.445Z,52.33
2019-04-19T00:29:00.898Z,51.95
2019-04-19T00:31:16.621Z,53.66
2019-04-19T00:33:36.306Z,53.09
2019-04-19T00:35:03.343Z,53.09
2019-04-19T00:36:18.186Z,53
2019-04-19T00:37:31.496Z,52.71
2019-04-19T00:39:14.772Z,52.33
2019-04-19T00:42:20.587Z,53.47
2019-04-19T00:45:18.400Z,53.44
2019-04-19T00:48:05.012Z,54.68
2019-04-19T00:50:46.827Z,55.73
2019-04-19T00:53:14.245Z,55.07
2019-04-19T00:55:25.727Z,55.73
2019-04-19T00:57:37.103Z,56.4
2019-04-19T00:59:21.442Z,56.3
2019-04-19T01:00:57.193Z,56.21
2019-04-19T01:02:48.758Z,56.02
2019-04-19T01:04:20.312Z,56.02
2019-04-19T01:06:00.440Z,56.02
2019-04-19T01:07:39.411Z,56.21
2019-04-19T01:09:18.954Z,56.21
2019-04-19T01:11:51.541Z,56.21
2019-04-19T01:14:29.658Z,56.4
2019-04-19T01:16:50.607Z,56.37
2019-04-19T01:19:14.348Z,57.04
2019-04-19T01:20:31.361Z,57.23
2019-04-19T01:21:43.174Z,57.23
2019-04-19T01:23:08.833Z,56.75
2019-04-19T01:24:40.199Z,56.56
2019-04-19T01:26:09.747Z,56.94
2019-04-19T01:27:32.968Z,57.42
2019-04-19T01:29:04.082Z,57.51
2019-04-19T01:30:38.397Z,56.75
2019-04-19T01:32:08.075Z,57.23
2019-04-19T01:33:39.270Z,57.32
2019-04-19T01:35:11.713Z,57.32
2019-04-19T01:36:41.639Z,57.32
2019-04-19T01:38:06.936Z,57.51
2019-04-19T01:39:56.534Z,57.42
2019-04-19T01:42:52.856Z,57.23
2019-04-19T01:45:41.661Z,58.08
2019-04-19T01:48:33.729Z,57.51
2019-04-19T01:51:01.935Z,57.89
2019-04-19T01:54:29.385Z,58.28
2019-04-19T01:56:24.794Z,57.99
2019-04-19T01:57:36.684Z,58.47
2019-04-19T01:58:58.671Z,58.18
2019-04-19T02:00:24.134Z,58.56
2019-04-19T02:02:12.540Z,58.75
2019-04-19T02:03:46.200Z,58.37
2019-04-19T02:05:12.220Z,58.08
2019-04-19T02:06:41.522Z,58.44
2019-04-19T02:08:08.211Z,58.25
2019-04-19T02:09:54.066Z,59.01
2019-04-19T02:12:22.050Z,59.1
2019-04-19T02:14:28.465Z,58.62
2019-04-19T02:16:24.975Z,58.62
2019-04-19T02:17:49.294Z,59.39
2019-04-19T02:19:17.685Z,59.01
2019-04-19T02:20:48.604Z,59.58
2019-04-19T02:22:20.797Z,59.86
2019-04-19T02:23:57.310Z,59.58
2019-04-19T02:25:24.562Z,59.96
2019-04-19T02:26:53.805Z,59.86
2019-04-19T02:28:34.150Z,59.67
2019-04-19T02:30:07.919Z,59.58
2019-04-19T02:32:57.669Z,59.77
2019-04-19T02:41:10.329Z,60.34
2019-04-19T02:45:15.679Z,60.24
2019-04-19T02:49:42.699Z,60.53
2019-04-19T02:54:02.101Z,60.63
2019-04-19T02:58:16.401Z,60.97
2019-04-19T03:06:30.436Z,61.35
2019-04-19T03:08:06.630Z,61.07
2019-04-19T03:09:20.174Z,61.35
2019-04-19T03:11:11.496Z,61.26
2019-04-19T03:14:02.875Z,61.55
2019-04-19T03:16:57.745Z,61.64
2019-04-19T03:20:05.027Z,62.12
2019-04-19T03:22:42.016Z,61.74
2019-04-19T03:25:27.449Z,61.55
2019-04-19T03:28:06.936Z,61.35
2019-04-19T03:30:29.152Z,61.26
2019-04-19T03:34:56.182Z,61.74
2019-04-19T03:37:54.579Z,62.4
2019-04-19T03:40:55.758Z,62.88
2019-04-19T03:44:24.952Z,62.4
2019-04-19T03:47:44.166Z,63.45
2019-04-19T03:51:08.465Z,63.26
2019-04-19T03:54:28.131Z,63.92
2019-04-19T03:57:31.094Z,63.79
2019-04-19T03:59:18.628Z,63.89
2019-04-19T04:00:30.504Z,63.89
2019-04-19T04:01:51.321Z,64.46
2019-04-19T04:03:27.860Z,64.94
2019-04-19T04:05:04.883Z,64.56
2019-04-19T04:06:34.754Z,64.56
2019-04-19T04:08:07.392Z,64.27
2019-04-19T04:09:45.589Z,64.08
2019-04-19T04:11:19.405Z,64.94
2019-04-19T04:12:59.960Z,66.08
2019-04-19T04:15:24.537Z,65.32
2019-04-19T04:17:29.270Z,65.51
2019-04-19T04:18:40.982Z,65.89
2019-04-19T04:19:52.842Z,65.99
2019-04-19T04:21:06.012Z,65.51
2019-04-19T04:22:31.711Z,65.6
2019-04-19T04:24:18.948Z,65.6
2019-04-19T04:26:17.603Z,64.75
2019-04-19T04:28:42.481Z,65.32
2019-04-19T04:30:55.884Z,65.89
2019-04-19T04:33:15.255Z,65.41
2019-04-19T04:35:52.966Z,65.8
2019-04-19T04:38:32.594Z,66.27
2019-04-19T04:39:55.910Z,66.17
2019-04-19T04:41:19.973Z,66.55
2019-04-19T04:43:03.768Z,66.36
2019-04-19T04:46:14.989Z,66.17
2019-04-19T04:49:34.211Z,66.36
2019-04-19T04:52:30.494Z,66.65
2019-04-19T04:53:55.755Z,66.55
2019-04-19T04:55:07.552Z,66.84
2019-04-19T04:56:19.618Z,66.65
2019-04-19T04:58:16.130Z,67.03
2019-04-19T04:59:55.300Z,66.74
2019-04-19T05:01:37.118Z,66.84
2019-04-19T05:04:01.637Z,66.46
2019-04-19T05:06:49.007Z,67.03
2019-04-19T05:09:48.583Z,65.99
2019-04-19T05:13:16.140Z,66.27
2019-04-19T05:16:26.252Z,66.46
2019-04-19T05:20:09.016Z,66.55
2019-04-19T05:22:53.386Z,66.17
2019-04-19T05:26:00.951Z,65.99
2019-04-19T05:29:22.615Z,65.99
2019-04-19T05:31:10.372Z,66.08
2019-04-19T05:33:14.730Z,65.92
2019-04-19T05:36:13.485Z,65.83
2019-04-19T05:39:17.056Z,65.35
2019-04-19T05:42:12.820Z,65.64
2019-04-19T05:45:57.777Z,65.35
2019-04-19T05:48:50.593Z,65.25
2019-04-19T05:51:59.349Z,64.69
2019-04-19T05:54:16.687Z,64.31
2019-04-19T05:55:30.576Z,63.86
2019-04-19T05:56:55.446Z,63.57
2019-04-19T05:59:29.106Z,63.76
2019-04-19T06:02:04.877Z,63.2
2019-04-19T06:04:40.747Z,62.34
2019-04-19T06:07:59.219Z,61.77
2019-04-19T06:09:38.893Z,61.9
2019-04-19T06:10:59.575Z,60.85
2019-04-19T06:12:33.234Z,61.04
2019-04-19T06:14:50.402Z,61.22
2019-04-19T06:18:00.219Z,60.46
2019-04-19T06:20:47.286Z,60.56
2019-04-19T06:23:53.434Z,60.3
2019-04-19T06:27:06.520Z,59.35
2019-04-19T06:30:45.288Z,58.87
2019-04-19T06:34:08.653Z,58.3
2019-04-19T06:36:29.469Z,58.4
2019-04-19T06:37:43.779Z,58.24
2019-04-19T06:38:55.252Z,58.24
2019-04-19T06:40:24.665Z,58.33
2019-04-19T06:42:07.589Z,58.04
2019-04-19T06:44:10.268Z,57.57
2019-04-19T06:47:02.470Z,57.5
2019-04-19T06:49:02.954Z,57
2019-04-19T06:50:42.904Z,56.46
2019-04-19T06:52:31.641Z,56.46
2019-04-19T06:54:00.277Z,56.17
2019-04-19T06:55:40.035Z,56.17
2019-04-19T06:57:37.222Z,55.88
2019-04-19T07:00:02.582Z,55.88
2019-04-19T07:02:09.157Z,56.07
2019-04-19T07:03:21.486Z,55.41
2019-04-19T07:04:43.899Z,55.79
2019-04-19T07:07:25.847Z,55.62
2019-04-19T07:11:30.240Z,55.43
2019-04-19T07:14:17.138Z,54.96
2019-04-19T07:16:34.675Z,55.05
2019-04-19T07:19:34.476Z,54.1
2019-04-19T07:22:19.189Z,53.74
2019-04-19T07:25:30.288Z,53.65
2019-04-19T07:28:23.120Z,53.93
2019-04-19T07:29:49.046Z,54.6
2019-04-19T07:31:16.817Z,53.84
2019-04-19T07:32:45.827Z,53.65
2019-04-19T07:35:00.477Z,53.55
2019-04-19T07:38:16.820Z,53.2
2019-04-19T07:41:26.559Z,52.05
2019-04-19T07:44:34.660Z,51.95
2019-04-19T07:46:49.865Z,51.6
2019-04-19T07:48:47.348Z,51.48
2019-04-19T07:50:17.704Z,51.79
2019-04-19T07:54:12.544Z,50.26
2019-04-19T07:56:00.165Z,50.48
2019-04-19T08:02:06.627Z,50.45
2019-04-19T08:06:27.379Z,50.29
2019-04-19T08:10:31.946Z,49.43
2019-04-19T08:17:17.530Z,49.07
2019-04-19T08:29:12.875Z,47.47
2019-04-19T08:31:11.126Z,46.8
2019-04-19T08:32:26.103Z,45.86
2019-04-19T08:33:40.023Z,45.19
2019-04-19T08:35:03.234Z,44.52
2019-04-19T08:36:42.483Z,44.16
2019-04-19T08:38:30.418Z,44.83
2019-04-19T08:41:05.710Z,44.52
2019-04-19T08:44:10.032Z,43.77
2019-04-19T08:46:06.998Z,43.9
2019-04-19T08:47:35.525Z,43.51
2019-04-19T08:49:33.559Z,43.51
2019-04-19T08:51:01.299Z,41.61
2019-04-19T08:52:23.892Z,40.58
2019-04-19T08:54:30.986Z,39.26
2019-04-19T08:57:19.509Z,37.47
2019-04-19T08:59:21.080Z,35.6
2019-04-19T09:02:38.047Z,33.03
2019-04-19T09:05:34.187Z,31.25
2019-04-19T09:10:01.073Z,28.87
2019-04-19T09:13:27.524Z,26.12
2019-04-19T09:16:41.322Z,23.14
2019-04-19T09:20:38.426Z,23.07
2019-04-19T09:23:26.916Z,22.22
2019-04-19T09:25:43.936Z,20.98
2019-04-19T09:31:48.125Z,19.44
2019-04-19T09:33:39.086Z,19.65
2019-04-19T09:35:14.662Z,17.52
2019-04-19T09:36:59.817Z,17.8
2019-04-19T09:39:43.956Z,17.9
2019-04-19T09:41:46.030Z,18.18
2019-04-19T09:44:05.620Z,17.71
2019-04-19T09:45:48.884Z,17.33
2019-04-19T09:47:02.701Z,17.24
2019-04-19T09:48:55.217Z,16.66
2019-04-19T09:51:46.675Z,16.37
2019-04-19T09:55:15.134Z,15.09
2019-04-19T09:58:25.134Z,15.77
2019-04-19T10:00:29.974Z,15.39
2019-04-19T10:01:56.007Z,13.84
2019-04-19T10:03:43.821Z,14.51
2019-04-19T10:05:09.987Z,13.93
2019-04-19T10:06:20.658Z,13.93
2019-04-19T10:07:32.581Z,14.32
2019-04-19T10:08:45.723Z,14.9
2019-04-19T10:10:09.517Z,15.09
2019-04-19T10:11:25.632Z,15.3
2019-04-19T10:12:36.097Z,15.01
2019-04-19T10:13:50.275Z,15.01
2019-04-19T10:15:02.324Z,14.82
2019-04-19T10:16:12.835Z,14.92
2019-04-19T10:17:25.114Z,14.92
2019-04-19T10:18:57.671Z,14.55
2019-04-19T10:20:18.437Z,13.39
2019-04-19T10:21:38.446Z,13.49
2019-04-19T10:22:53.325Z,13.2
2019-04-19T10:24:18.240Z,12.21
2019-04-19T10:25:35.301Z,12.4
2019-04-19T10:27:10.798Z,12.21
2019-04-19T10:28:26.869Z,13.09
2019-04-19T10:29:45.282Z,12.5
2019-04-19T10:30:59.213Z,13.09
2019-04-19T10:32:11.001Z,13.87
2019-04-19T10:33:40.095Z,13.96
2019-04-19T10:35:09.557Z,12.9
2019-04-19T10:36:20.698Z,12.41
2019-04-19T10:37:31.886Z,12.92
2019-04-19T10:38:43.523Z,12.33
2019-04-19T10:39:59.904Z,12.14
2019-04-19T10:41:13.960Z,12.13
2019-04-19T10:42:25.580Z,12.34
2019-04-19T10:43:39.473Z,12.24
2019-04-19T10:45:16.604Z,12.23
2019-04-19T10:46:29.302Z,12.13
2019-04-19T10:47:40.085Z,12.22
2019-04-19T10:49:13.013Z,12.12
2019-04-19T10:50:57.526Z,12.32
2019-04-19T10:52:13.217Z,12.41
2019-04-19T10:53:24.614Z,11.93
2019-04-19T10:54:36.286Z,11.55
2019-04-19T10:55:46.998Z,11.64
2019-04-19T10:56:58.508Z,12.03
2019-04-19T10:58:11.910Z,11.64
2019-04-19T10:59:22.958Z,11.55
2019-04-19T11:00:33.822Z,11.26
2019-04-19T11:01:45.962Z,11.27
2019-04-19T11:02:59.409Z,11.27
2019-04-19T11:04:12.916Z,11.66
2019-04-19T11:05:24.763Z,11.56
2019-04-19T11:06:35.648Z,11.76
2019-04-19T11:07:46.513Z,11.27
2019-04-19T11:08:58.517Z,11.37
2019-04-19T11:10:09.986Z,11.47
2019-04-19T11:11:23.842Z,11.18
2019-04-19T11:12:34.964Z,11.08
2019-04-19T11:13:47.928Z,10.98
2019-04-19T11:15:00.371Z,10.98
2019-04-19T11:16:12.517Z,10.78
2019-04-19T11:17:25.373Z,10.78
2019-04-19T11:18:37.624Z,10.39
2019-04-19T11:20:19.743Z,10.59
2019-04-19T11:21:56.853Z,10.88
2019-04-19T11:23:08.547Z,11.07
2019-04-19T11:24:19.952Z,10.77
2019-04-19T11:25:33.347Z,10.86
2019-04-19T11:26:48.657Z,10.87
2019-04-19T11:28:00.810Z,10.97
2019-04-19T11:29:13.454Z,11.07
2019-04-19T11:30:26.616Z,10.88
2019-04-19T11:31:39.501Z,11.37
2019-04-19T11:32:50.685Z,11.17
2019-04-19T11:34:01.853Z,10.97
2019-04-19T11:35:14.176Z,11.26
2019-04-19T11:36:26.190Z,10.77
2019-04-19T11:37:37.432Z,11.15
2019-04-19T11:38:49.054Z,10.66
2019-04-19T11:39:59.686Z,10.97
2019-04-19T11:41:13.034Z,11.16
2019-04-19T11:42:23.875Z,10.58
2019-04-19T11:43:36.229Z,11.07
2019-04-19T11:44:49.733Z,10.38
2019-04-19T11:46:00.442Z,10.09
2019-04-19T11:47:13.579Z,10.38
2019-04-19T11:48:27.084Z,10.09
2019-04-19T11:49:45.968Z,10.58
2019-04-19T11:50:58.374Z,10.19
2019-04-19T11:52:13.915Z,9.91
2019-04-19T11:53:25.216Z,10.49
2019-04-19T11:54:36.575Z,10.21
2019-04-19T11:55:47.183Z,10.11
2019-04-19T11:57:07.213Z,9.81
2019-04-19T11:58:20.201Z,9.71
2019-04-19T11:59:49.200Z,8.73
2019-04-19T12:01:08.153Z,9.52
2019-04-19T12:02:22.375Z,9.22
2019-04-19T12:03:40.002Z,9.31
2019-04-19T12:04:52.965Z,9.03
2019-04-19T12:06:16.545Z,9.12
2019-04-19T12:07:30.738Z,9.23
2019-04-19T12:08:46.330Z,9.42
2019-04-19T12:10:00.542Z,9.23
2019-04-19T12:11:12.493Z,9.23
2019-04-19T12:12:23.634Z,9.23
2019-04-19T12:13:41.158Z,9.23
2019-04-19T12:14:53.351Z,9.44
2019-04-19T12:16:06.212Z,9.73
2019-04-19T12:17:18.201Z,9.44
2019-04-19T12:18:28.750Z,9.43
2019-04-19T12:19:59.077Z,9.43
2019-04-19T12:21:16.022Z,9.33
2019-04-19T12:22:28.023Z,9.13
2019-04-19T12:23:39.422Z,9.23
2019-04-19T12:24:55.271Z,9.23
2019-04-19T12:26:06.329Z,8.94
2019-04-19T12:27:18.180Z,9.23
2019-04-19T12:28:30.228Z,9.23
2019-04-19T12:29:49.892Z,9.23
2019-04-19T12:31:05.368Z,9.03
2019-04-19T12:32:17.318Z,8.94
2019-04-19T12:33:29.439Z,9.23
2019-04-19T12:34:40.666Z,9.33
2019-04-19T12:35:52.984Z,9.62
2019-04-19T12:37:04.790Z,9.33
2019-04-19T12:38:17.668Z,9.61
2019-04-19T12:39:30.484Z,9.61
2019-04-19T12:40:43.492Z,9.41
2019-04-19T12:41:55.601Z,9.7
2019-04-19T12:43:07.699Z,9.61
2019-04-19T12:44:20.920Z,9.81
2019-04-19T12:45:33.544Z,9.32
2019-04-19T12:46:43.393Z,9.12
2019-04-19T12:47:55.791Z,9.32
2019-04-19T12:49:06.988Z,9.32
2019-04-19T12:50:19.749Z,9.42
2019-04-19T12:51:30.511Z,9.03
2019-04-19T12:52:44.035Z,9.43
2019-04-19T12:53:56.077Z,9.33
2019-04-19T12:55:10.127Z,9.53
2019-04-19T12:56:22.035Z,9.43
2019-04-19T12:57:32.616Z,9.43
2019-04-19T12:58:46.010Z,9.33
2019-04-19T13:00:00.460Z,9.92
2019-04-19T13:01:12.109Z,10.01
2019-04-19T13:02:24.452Z,9.91
2019-04-19T13:03:35.787Z,10.21
2019-04-19T13:04:48.864Z,10.11
2019-04-19T13:05:59.975Z,10.11
2019-04-19T13:07:13.243Z,10.11
2019-04-19T13:08:23.469Z,9.81
2019-04-19T13:09:35.685Z,10.11
2019-04-19T13:10:47.426Z,10.21
2019-04-19T13:12:00.771Z,10.21
2019-04-19T13:13:12.316Z,9.91
2019-04-19T13:14:24.343Z,10.21
2019-04-19T13:15:36.780Z,10.4
2019-04-19T13:16:50.816Z,10.6
2019-04-19T13:18:04.307Z,10.79
2019-04-19T13:19:16.232Z,10.5
2019-04-19T13:20:35.658Z,10.11
2019-04-19T13:21:50.345Z,10.31
2019-04-19T13:23:02.176Z,10.41
2019-04-19T13:24:14.099Z,10.21
2019-04-19T13:25:26.874Z,10.5
2019-04-19T13:26:39.013Z,10.6
2019-04-19T13:27:59.436Z,10.79
2019-04-19T13:29:15.517Z,10.49
2019-04-19T13:30:44.025Z,10.49
2019-04-19T13:32:09.028Z,10.5
2019-04-19T13:33:21.061Z,10
2019-04-19T13:34:33.980Z,10.4
2019-04-19T13:35:46.167Z,10.21
2019-04-19T13:36:57.408Z,10.11
2019-04-19T13:38:09.654Z,10.21
2019-04-19T13:39:21.755Z,10.21
2019-04-19T13:40:32.850Z,10.01
2019-04-19T13:41:44.996Z,9.52
2019-04-19T13:43:01.877Z,9.33
2019-04-19T13:44:14.654Z,9.42
2019-04-19T13:45:34.484Z,9.91
2019-04-19T13:46:51.073Z,9.52
2019-04-19T13:48:02.689Z,9.52
2019-04-19T13:49:14.594Z,9.53
2019-04-19T13:50:37.752Z,9.42
2019-04-19T13:51:54.986Z,9.52
2019-04-19T13:53:07.108Z,9.72
2019-04-19T13:54:18.955Z,9.33
2019-04-19T13:55:29.009Z,9.33
2019-04-19T13:56:42.836Z,9.42
2019-04-19T13:57:57.653Z,9.13
2019-04-19T13:59:07.792Z,9.12
2019-04-19T14:00:20.767Z,9.33
2019-04-19T14:01:32.837Z,9.33
2019-04-19T14:02:45.742Z,9.52
2019-04-19T14:03:57.805Z,9.03
2019-04-19T14:05:09.727Z,9.52
2019-04-19T14:06:22.262Z,9.52
2019-04-19T14:07:35.242Z,9.33
2019-04-19T14:08:47.928Z,9.42
2019-04-19T14:10:01.522Z,9.42
2019-04-19T14:11:13.577Z,9.42
2019-04-19T14:12:25.423Z,9.32
2019-04-19T14:13:37.509Z,9.22
2019-04-19T14:15:00.104Z,9.33
2019-04-19T14:16:12.290Z,9.31
2019-04-19T14:17:22.377Z,9.31
2019-04-19T14:18:33.297Z,9.81
2019-04-19T14:19:47.265Z,9.71
2019-04-19T14:20:59.110Z,9.42
2019-04-19T14:22:09.224Z,9.71
2019-04-19T14:23:22.060Z,9.42
2019-04-19T14:24:35.482Z,9.52
2019-04-19T14:25:45.749Z,9.22
2019-04-19T14:27:01.040Z,9.31
2019-04-19T14:28:15.802Z,9.41
2019-04-19T14:29:25.907Z,9.31
2019-04-19T14:30:38.019Z,9.7
2019-04-19T14:31:51.005Z,9.8
2019-04-19T14:33:02.514Z,9.31
2019-04-19T14:34:13.681Z,9.41
2019-04-19T14:35:26.282Z,9.03
2019-04-19T14:36:38.661Z,8.83
2019-04-19T14:37:50.567Z,9.22
2019-04-19T14:39:02.835Z,9.41
2019-04-19T14:40:15.299Z,9.41
2019-04-19T14:41:27.840Z,9.21
2019-04-19T14:42:40.321Z,9.3
2019-04-19T14:43:52.816Z,9.4
2019-04-19T14:45:05.788Z,9.59
2019-04-19T14:46:17.031Z,9.69
2019-04-19T14:47:29.122Z,9.78
2019-04-19T14:48:45.146Z,9.78
2019-04-19T14:49:59.215Z,10.08
2019-04-19T14:51:25.755Z,10.58
2019-04-19T14:52:47.587Z,10.96
2019-04-19T14:54:00.583Z,11.05
2019-04-19T14:55:13.702Z,11.15
2019-04-19T14:56:24.240Z,11.15
2019-04-19T14:57:36.903Z,11.54
2019-04-19T14:58:49.573Z,11.34
2019-04-19T14:59:59.283Z,11.34
2019-04-19T15:01:11.265Z,11.15
2019-04-19T15:02:23.172Z,11.44
2019-04-19T15:03:34.890Z,11.44
2019-04-19T15:04:47.366Z,11.63
2019-04-19T15:05:59.969Z,11.53
2019-04-19T15:07:12.295Z,11.15
2019-04-19T15:08:24.797Z,11.64
2019-04-19T15:09:39.974Z,11.54
2019-04-19T15:10:51.808Z,11.35
2019-04-19T15:12:02.916Z,11.25
2019-04-19T15:13:17.123Z,11.74
2019-04-19T15:14:28.631Z,11.44
2019-04-19T15:15:41.431Z,11.73
2019-04-19T15:16:52.767Z,11.73
2019-04-19T15:18:04.597Z,12.02
2019-04-19T15:19:16.894Z,11.82
2019-04-19T15:20:26.771Z,11.92
2019-04-19T15:21:38.894Z,11.82
2019-04-19T15:22:50.691Z,11.82
2019-04-19T15:24:01.334Z,11.92
2019-04-19T15:25:15.325Z,11.92
2019-04-19T15:26:29.018Z,11.83
2019-04-19T15:27:41.069Z,11.63
2019-04-19T15:28:53.629Z,11.73
2019-04-19T15:30:05.326Z,11.92
2019-04-19T15:31:16.711Z,11.82
2019-04-19T15:32:30.505Z,11.63
2019-04-19T15:33:43.051Z,11.54
2019-04-19T15:34:56.206Z,11.63
2019-04-19T15:36:07.935Z,11.63
2019-04-19T15:37:19.942Z,11.72
2019-04-19T15:38:32.074Z,11.63
2019-04-19T15:39:44.462Z,11.82
2019-04-19T15:40:54.776Z,11.91
2019-04-19T15:42:08.479Z,11.91
2019-04-19T15:43:19.570Z,11.91
2019-04-19T15:44:31.155Z,12.11
2019-04-19T15:45:43.608Z,12.11
2019-04-19T15:46:56.148Z,12.21
2019-04-19T15:48:11.299Z,12.3
2019-04-19T15:49:54.122Z,12.3
2019-04-19T15:51:26.713Z,12.4
2019-04-19T15:52:50.216Z,12.21
2019-04-19T15:54:02.806Z,12.81
2019-04-19T15:55:14.662Z,12.8
2019-04-19T15:56:26.905Z,12.6
2019-04-19T15:57:38.753Z,12.4
2019-04-19T15:58:50.984Z,12.99
2019-04-19T16:00:02.474Z,12.99
2019-04-19T16:01:14.269Z,13.09
2019-04-19T16:02:26.120Z,13.18
2019-04-19T16:03:38.265Z,13.28
2019-04-19T16:04:50.375Z,13.28
2019-04-19T16:06:00.710Z,13.38
2019-04-19T16:07:14.266Z,12.98
2019-04-19T16:08:25.120Z,12.99
2019-04-19T16:09:38.093Z,13.17
2019-04-19T16:10:51.084Z,13.27
2019-04-19T16:12:02.812Z,13.27
2019-04-19T16:13:14.394Z,13.75
2019-04-19T16:14:26.513Z,13.65
2019-04-19T16:15:38.572Z,13.65
2019-04-19T16:16:51.565Z,13.95
2019-04-19T16:18:04.454Z,14.14
2019-04-19T16:19:16.860Z,14.43
2019-04-19T16:20:29.454Z,14.43
2019-04-19T16:21:55.047Z,14.72
2019-04-19T16:23:12.605Z,14.82
2019-04-19T16:24:25.073Z,14.91
2019-04-19T16:25:36.387Z,14.91
2019-04-19T16:26:51.434Z,15.2
2019-04-19T16:28:03.750Z,15.39
2019-04-19T16:29:36.358Z,15.67
2019-04-19T16:31:04.171Z,15.87
2019-04-19T16:32:16.727Z,15.67
2019-04-19T16:33:28.041Z,15.97
2019-04-19T16:34:39.056Z,15.77
2019-04-19T16:35:52.212Z,15.78
2019-04-19T16:37:02.976Z,15.68
2019-04-19T16:38:14.425Z,15.97
2019-04-19T16:39:29.576Z,15.68
2019-04-19T16:40:40.967Z,15.97
2019-04-19T16:41:51.602Z,15.68
2019-04-19T16:43:01.829Z,15.67
2019-04-19T16:44:14.122Z,15.58
2019-04-19T16:45:26.552Z,16.25
2019-04-19T16:46:39.630Z,16.05
2019-04-19T16:47:51.890Z,16.25
2019-04-19T16:49:02.982Z,16.34
2019-04-19T16:50:16.808Z,16.53
2019-04-19T16:51:45.804Z,16.53
2019-04-19T16:53:10.710Z,16.33
2019-04-19T16:54:20.973Z,15.85
2019-04-19T16:55:32.093Z,16.62
2019-04-19T16:56:45.784Z,16.91
2019-04-19T16:58:15.016Z,16.81
2019-04-19T16:59:28.334Z,16.61
2019-04-19T17:00:41.110Z,17
2019-04-19T17:01:52.956Z,16.61
2019-04-19T17:03:04.885Z,16.71
2019-04-19T17:04:15.973Z,16.71
2019-04-19T17:05:31.168Z,17
2019-04-19T17:06:42.925Z,17
2019-04-19T17:07:55.674Z,17.48
2019-04-19T17:09:07.161Z,17.48
2019-04-19T17:10:23.154Z,16.99
2019-04-19T17:11:37.546Z,17.57
2019-04-19T17:12:47.607Z,17.57
2019-04-19T17:13:59.065Z,17.46
2019-04-19T17:15:11.130Z,17.47
2019-04-19T17:16:23.225Z,16.99
2019-04-19T17:17:38.789Z,17.28
2019-04-19T17:18:50.974Z,16.8
2019-04-19T17:20:02.970Z,17.47
2019-04-19T17:21:13.627Z,17.38
2019-04-19T17:22:28.970Z,17.08
2019-04-19T17:23:40.529Z,17.27
2019-04-19T17:24:52.647Z,16.87
2019-04-19T17:26:04.705Z,16.87
2019-04-19T17:27:16.797Z,17.44
2019-04-19T17:28:39.524Z,17.44
2019-04-19T17:29:52.339Z,17.05
2019-04-19T17:31:02.548Z,17.34
2019-04-19T17:32:14.581Z,17.24
2019-04-19T17:33:28.254Z,16.94
2019-04-19T17:34:40.179Z,17.14
2019-04-19T17:35:52.191Z,17.04
2019-04-19T17:37:04.279Z,17.24
2019-04-19T17:38:35.672Z,17.54
2019-04-19T17:40:01.177Z,17.82
2019-04-19T17:41:12.628Z,18.1
2019-04-19T17:42:24.755Z,18.38
2019-04-19T17:43:37.379Z,18.57
2019-04-19T17:44:49.769Z,18.95
2019-04-19T17:46:02.175Z,19.04
2019-04-19T17:47:16.907Z,18.94
2019-04-19T17:48:46.843Z,18.94
2019-04-19T17:49:58.723Z,18.94
2019-04-19T17:51:10.090Z,19.12
2019-04-19T17:52:32.962Z,19.51
2019-04-19T17:53:52.435Z,20.09
2019-04-19T17:55:27.262Z,19.7
2019-04-19T17:56:59.406Z,20.18
2019-04-19T17:58:11.501Z,20.07
2019-04-19T17:59:25.363Z,20.65
2019-04-19T18:00:37.163Z,20.56
2019-04-19T18:01:48.701Z,20.75
2019-04-19T18:02:59.861Z,20.54
2019-04-19T18:04:11.509Z,20.83
2019-04-19T18:05:26.268Z,20.83
2019-04-19T18:06:38.791Z,21.22
2019-04-19T18:08:06.712Z,21.22
2019-04-19T18:09:35.606Z,21.88
2019-04-19T18:11:13.982Z,21.48
2019-04-19T18:12:41.603Z,21.88
2019-04-19T18:13:53.432Z,21.88
2019-04-19T18:15:05.897Z,21.97
2019-04-19T18:16:17.036Z,21.88
2019-04-19T18:17:31.332Z,21.88
2019-04-19T18:18:50.694Z,22.45
2019-04-19T18:20:16.323Z,23.02
2019-04-19T18:21:41.968Z,22.63
2019-04-19T18:23:12.810Z,22.92
2019-04-19T18:25:09.002Z,23.11
2019-04-19T18:26:31.724Z,23.2
2019-04-19T18:27:57.062Z,23.58
2019-04-19T18:29:28.468Z,23.28
2019-04-19T18:30:52.308Z,23.28
2019-04-19T18:32:12.505Z,23.1
2019-04-19T18:33:27.214Z,23.78
2019-04-19T18:34:47.037Z,23.86
2019-04-19T18:36:09.099Z,23.77
2019-04-19T18:37:41.466Z,23.96
2019-04-19T18:38:55.876Z,23.86
2019-04-19T18:40:10.794Z,23.77
2019-04-19T18:41:21.338Z,23.96
2019-04-19T18:42:45.963Z,24.15
2019-04-19T18:44:56.271Z,23.96
2019-04-19T18:46:29.206Z,25.1
2019-04-19T18:47:41.599Z,25.01
2019-04-19T18:48:54.155Z,25.09
2019-04-19T18:50:06.468Z,24.99
2019-04-19T18:51:36.163Z,24.9
2019-04-19T18:53:18.799Z,25.28
2019-04-19T18:55:17.605Z,25.38
2019-04-19T18:57:04.143Z,25.57
2019-04-19T18:58:30.030Z,25.76
2019-04-19T18:59:57.170Z,25.57
2019-04-19T19:01:25.490Z,25.57
2019-04-19T19:02:59.422Z,25.57
2019-04-19T19:04:26.271Z,25.76
2019-04-19T19:05:55.646Z,25.94
2019-04-19T19:07:25.506Z,26.13
2019-04-19T19:08:56.637Z,26.23
2019-04-19T19:10:45.041Z,26.32
2019-04-19T19:12:18.356Z,26.32
2019-04-19T19:13:37.245Z,26.42
2019-04-19T19:15:02.907Z,26.42
2019-04-19T19:16:25.878Z,26.61
2019-04-19T19:17:56.374Z,27.08
2019-04-19T19:19:27.400Z,27.17
2019-04-19T19:21:00.073Z,27.37
2019-04-19T19:22:36.046Z,27.73
2019-04-19T19:25:24.622Z,28.03
2019-04-19T19:27:26.782Z,28.31
2019-04-19T19:28:42.539Z,28.41
2019-04-19T19:29:54.588Z,28.6
2019-04-19T19:31:05.383Z,28.78
2019-04-19T19:32:20.838Z,28.97
2019-04-19T19:33:45.021Z,28.78
2019-04-19T19:35:10.715Z,29.16
2019-04-19T19:36:44.195Z,28.88
2019-04-19T19:38:15.326Z,28.96
2019-04-19T19:42:51.471Z,29.05
2019-04-19T19:45:37.417Z,28.96
2019-04-19T19:49:24.913Z,29.05
2019-04-19T19:52:51.047Z,29.42
2019-04-19T19:57:02.087Z,29.04
2019-04-19T19:59:24.666Z,29.04
2019-04-19T20:01:51.186Z,28.94
2019-04-19T20:03:56.150Z,29.23
2019-04-19T20:05:11.690Z,28.94
2019-04-19T20:07:01.027Z,29.6
2019-04-19T20:08:40.925Z,29.22
2019-04-19T20:10:12.644Z,29.69
2019-04-19T20:11:44.090Z,30.18
2019-04-19T20:13:12.673Z,30.27
2019-04-19T20:14:40.579Z,30.27
2019-04-19T20:16:07.880Z,30.44
2019-04-19T20:17:50.847Z,30.54
2019-04-19T20:19:17.311Z,30.54
2019-04-19T20:20:41.161Z,30.83
2019-04-19T20:22:05.932Z,30.83
2019-04-19T20:23:35.193Z,30.93
2019-04-19T20:25:54.698Z,31.12
2019-04-19T20:27:51.993Z,31.1
2019-04-19T20:29:22.029Z,31.38
2019-04-19T20:30:48.920Z,31.29
2019-04-19T20:32:19.131Z,31.48
2019-04-19T20:33:44.903Z,31.1
2019-04-19T20:35:21.409Z,31.58
2019-04-19T20:36:40.162Z,31.29
2019-04-19T20:38:07.240Z,31.18
2019-04-19T20:39:36.029Z,31.38
2019-04-19T20:41:03.592Z,31.56
2019-04-19T20:42:55.066Z,31.37
2019-04-19T20:45:26.376Z,31.56
2019-04-19T20:47:08.690Z,31.76
2019-04-19T20:48:37.539Z,31.47
2019-04-19T20:50:25.104Z,31.85
2019-04-19T20:52:45.245Z,32.04
2019-04-19T20:55:24.775Z,31.66
2019-04-19T20:58:34.985Z,31.76
2019-04-19T21:00:07.909Z,31.85
2019-04-19T21:01:19.333Z,31.84
2019-04-19T21:02:40.554Z,32.21
2019-04-19T21:03:53.156Z,31.93
2019-04-19T21:05:22.300Z,32.03
2019-04-19T21:06:52.168Z,32.21
2019-04-19T21:08:28.369Z,31.84
2019-04-19T21:09:57.886Z,32.21
2019-04-19T21:11:28.090Z,31.93
2019-04-19T21:13:08.646Z,32.03
2019-04-19T21:14:38.819Z,32.31
2019-04-19T21:15:56.774Z,32.6
2019-04-19T21:17:12.384Z,32.68
2019-04-19T21:18:29.448Z,32.49
2019-04-19T21:19:50.248Z,32.49
2019-04-19T21:21:12.772Z,32.39
2019-04-19T21:22:36.582Z,32.29
2019-04-19T21:24:01.833Z,32.87
2019-04-19T21:25:38.067Z,32.58
2019-04-19T21:27:22.087Z,32.78
2019-04-19T21:28:57.910Z,33.06
2019-04-19T21:30:14.626Z,32.87
2019-04-19T21:31:43.943Z,33.25
2019-04-19T21:33:15.775Z,33.44
2019-04-19T21:34:35.346Z,33.71
2019-04-19T21:36:00.598Z,33.81
2019-04-19T21:37:35.700Z,34
2019-04-19T21:39:09.505Z,34.09